TimeEDT,TemperatureF,Dew PointF,Humidity,Sea Level PressureIn,VisibilityMPH,Wind Direction,Wind SpeedMPH,Gust SpeedMPH,PrecipitationIn,Events,Conditions,WindDirDegrees,DateUTC
12:51 AM,69.1,66.0,90,30.15,6.0,Calm,Calm,-,N/A,,Overcast,0,2013-07-05 04:51:00
1:51 AM,68.0,66.0,93,30.14,6.0,Calm,Calm,-,0.00,,Overcast,0,2013-07-05 05:51:00
2:51 AM,66.0,64.9,96,30.13,5.0,ESE,4.6,-,N/A,Fog,Overcast,110,2013-07-05 06:51:00
3:51 AM,66.9,66.0,97,30.12,3.0,ESE,6.9,-,N/A,,Overcast,120,2013-07-05 07:51:00
4:51 AM,69.1,66.9,93,30.14,3.0,SW,5.8,-,0.01,Rain,Heavy Rain,230,2013-07-05 08:51:00
5:51 AM,68.0,66.9,96,30.12,4.0,Calm,Calm,-,0.09,,Overcast,0,2013-07-05 09:51:00
6:31 AM,68.0,66.2,94,30.14,5.0,SE,6.9,-,N/A,,Overcast,130,2013-07-05 10:31:00
6:51 AM,69.1,66.9,93,30.12,8.0,SE,5.8,-,N/A,,Overcast,140,2013-07-05 10:51:00
7:51 AM,70.0,68.0,93,30.13,10.0,South,5.8,-,0.00,Rain,Light Rain,190,2013-07-05 11:51:00
8:51 AM,71.1,68.0,90,30.15,10.0,SSW,8.1,-,0.00,Rain,Light Rain,200,2013-07-05 12:51:00
9:37 AM,71.6,68.0,88,30.17,10.0,SSW,9.2,-,0.00,,Light Drizzle,210,2013-07-05 13:37:00
9:51 AM,72.0,68.0,87,30.14,10.0,SSW,6.9,-,0.00,,Overcast,200,2013-07-05 13:51:00
10:51 AM,73.9,66.9,79,30.15,10.0,SW,9.2,-,0.00,Rain,Light Rain,220,2013-07-05 14:51:00
11:51 AM,73.9,66.0,76,30.17,10.0,SW,10.4,-,0.00,,Light Drizzle,230,2013-07-05 15:51:00
12:12 PM,75.2,68.0,78,30.18,10.0,SSW,10.4,-,0.00,,Light Drizzle,210,2013-07-05 16:12:00
12:33 PM,75.2,66.2,73,30.18,10.0,South,12.7,-,0.00,,Overcast,190,2013-07-05 16:33:00
12:51 PM,77.0,66.9,71,30.16,10.0,SSW,11.5,18.4,0.00,,Mostly Cloudy,200,2013-07-05 16:51:00
1:27 PM,77.0,66.2,69,30.17,10.0,SSW,11.5,23.0,N/A,,Overcast,210,2013-07-05 17:27:00
1:51 PM,77.0,66.0,69,30.15,10.0,SW,17.3,29.9,N/A,,Overcast,220,2013-07-05 17:51:00
2:24 PM,78.8,66.2,65,30.16,10.0,SW,15.0,21.9,N/A,,Overcast,220,2013-07-05 18:24:00
2:51 PM,79.0,66.9,66,30.14,10.0,SW,12.7,-,N/A,,Mostly Cloudy,230,2013-07-05 18:51:00
3:36 PM,78.8,66.2,65,30.15,10.0,SSW,11.5,17.3,N/A,,Mostly Cloudy,210,2013-07-05 19:36:00
3:51 PM,79.0,66.0,64,30.12,10.0,SSW,9.2,19.6,N/A,,Mostly Cloudy,210,2013-07-05 19:51:00
4:51 PM,73.0,68.0,84,30.13,3.0,SW,11.5,-,0.07,Rain,Rain,220,2013-07-05 20:51:00
5:25 PM,73.4,69.8,88,30.13,10.0,WSW,4.6,-,0.07,Rain,Light Rain,250,2013-07-05 21:25:00
5:51 PM,73.9,70.0,87,30.11,10.0,SSW,5.8,-,0.08,,Mostly Cloudy,210,2013-07-05 21:51:00
6:51 PM,73.0,70.0,90,30.11,10.0,SSW,6.9,-,0.00,,Mostly Cloudy,210,2013-07-05 22:51:00
7:51 PM,73.0,70.0,90,30.11,10.0,South,4.6,-,N/A,,Mostly Cloudy,190,2013-07-05 23:51:00
8:51 PM,71.1,70.0,96,30.13,10.0,South,3.5,-,N/A,,Mostly Cloudy,180,2013-07-06 00:51:00
9:51 PM,71.1,69.1,93,30.13,10.0,South,4.6,-,N/A,,Mostly Cloudy,190,2013-07-06 01:51:00
10:51 PM,71.1,69.1,93,30.14,9.0,South,4.6,-,N/A,,Mostly Cloudy,190,2013-07-06 02:51:00
11:51 PM,71.1,69.1,93,30.15,8.0,SSW,3.5,-,N/A,,Mostly Cloudy,210,2013-07-06 03:51:00